sensor_id;sensor_type;location;lat;lon;timestamp;P1;durP1;ratioP1;P2;durP2;ratioP2
18997;SDS011;9632;51.018;4.284;2022-11-02T00:00:41;8.30;;;1.30;;
18997;SDS011;9632;51.018;4.284;2022-11-02T00:03:08;7.15;;;1.15;;
18997;SDS011;9632;51.018;4.284;2022-11-02T00:05:33;5.72;;;1.00;;
18997;SDS011;9632;51.018;4.284;2022-11-02T00:07:59;7.63;;;1.10;;
18997;SDS011;9632;51.018;4.284;2022-11-02T00:10:24;9.02;;;1.50;;
18997;SDS011;9632;51.018;4.284;2022-11-02T00:12:51;8.60;;;1.17;;
18997;SDS011;9632;51.018;4.284;2022-11-02T00:15:17;9.43;;;1.05;;
18997;SDS011;9632;51.018;4.284;2022-11-02T00:17:47;7.38;;;0.80;;
18997;SDS011;9632;51.018;4.284;2022-11-02T00:20:17;10.60;;;1.02;;
18997;SDS011;9632;51.018;4.284;2022-11-02T00:22:44;8.07;;;1.02;;
18997;SDS011;9632;51.018;4.284;2022-11-02T00:25:12;12.50;;;1.15;;
18997;SDS011;9632;51.018;4.284;2022-11-02T00:27:41;7.38;;;1.33;;
18997;SDS011;9632;51.018;4.284;2022-11-02T00:30:07;7.25;;;0.90;;
18997;SDS011;9632;51.018;4.284;2022-11-02T00:32:33;8.88;;;1.02;;
18997;SDS011;9632;51.018;4.284;2022-11-02T00:34:59;7.03;;;1.10;;
18997;SDS011;9632;51.018;4.284;2022-11-02T00:37:24;9.63;;;1.15;;
18997;SDS011;9632;51.018;4.284;2022-11-02T00:39:50;12.00;;;1.20;;
18997;SDS011;9632;51.018;4.284;2022-11-02T00:42:16;8.25;;;1.00;;
18997;SDS011;9632;51.018;4.284;2022-11-02T00:44:41;10.93;;;1.13;;
18997;SDS011;9632;51.018;4.284;2022-11-02T00:47:07;7.22;;;1.00;;
18997;SDS011;9632;51.018;4.284;2022-11-02T00:49:33;9.77;;;1.67;;
18997;SDS011;9632;51.018;4.284;2022-11-02T00:51:58;12.32;;;1.33;;
18997;SDS011;9632;51.018;4.284;2022-11-02T00:54:24;9.70;;;1.27;;
18997;SDS011;9632;51.018;4.284;2022-11-02T00:56:49;10.00;;;1.33;;
18997;SDS011;9632;51.018;4.284;2022-11-02T00:59:15;11.35;;;1.23;;
18997;SDS011;9632;51.018;4.284;2022-11-02T01:01:41;10.82;;;1.20;;
18997;SDS011;9632;51.018;4.284;2022-11-02T01:04:11;11.65;;;1.73;;
18997;SDS011;9632;51.018;4.284;2022-11-02T01:06:38;9.60;;;1.00;;
18997;SDS011;9632;51.018;4.284;2022-11-02T01:09:04;11.65;;;1.20;;
18997;SDS011;9632;51.018;4.284;2022-11-02T01:11:30;10.95;;;1.50;;
18997;SDS011;9632;51.018;4.284;2022-11-02T01:13:55;9.07;;;1.30;;
18997;SDS011;9632;51.018;4.284;2022-11-02T01:16:21;10.93;;;1.60;;
18997;SDS011;9632;51.018;4.284;2022-11-02T01:18:50;6.10;;;1.02;;
18997;SDS011;9632;51.018;4.284;2022-11-02T01:21:17;10.15;;;1.30;;
18997;SDS011;9632;51.018;4.284;2022-11-02T01:23:42;11.07;;;1.30;;
18997;SDS011;9632;51.018;4.284;2022-11-02T01:26:08;10.35;;;1.40;;
18997;SDS011;9632;51.018;4.284;2022-11-02T01:28:34;11.10;;;1.40;;
18997;SDS011;9632;51.018;4.284;2022-11-02T01:31:00;8.98;;;0.98;;
18997;SDS011;9632;51.018;4.284;2022-11-02T01:33:26;13.40;;;1.60;;
18997;SDS011;9632;51.018;4.284;2022-11-02T01:35:52;14.23;;;1.83;;
18997;SDS011;9632;51.018;4.284;2022-11-02T01:38:19;13.40;;;1.40;;
18997;SDS011;9632;51.018;4.284;2022-11-02T01:40:46;15.02;;;1.70;;
18997;SDS011;9632;51.018;4.284;2022-11-02T01:43:21;11.00;;;1.40;;
18997;SDS011;9632;51.018;4.284;2022-11-02T01:45:57;10.50;;;1.13;;
18997;SDS011;9632;51.018;4.284;2022-11-02T01:48:28;13.15;;;1.73;;
18997;SDS011;9632;51.018;4.284;2022-11-02T01:50:57;14.23;;;1.50;;
18997;SDS011;9632;51.018;4.284;2022-11-02T01:53:26;12.70;;;1.40;;
18997;SDS011;9632;51.018;4.284;2022-11-02T01:55:52;7.93;;;1.10;;
18997;SDS011;9632;51.018;4.284;2022-11-02T01:58:19;14.80;;;1.50;;
18997;SDS011;9632;51.018;4.284;2022-11-02T02:00:45;9.48;;;1.20;;
18997;SDS011;9632;51.018;4.284;2022-11-02T02:03:11;12.50;;;1.45;;
18997;SDS011;9632;51.018;4.284;2022-11-02T02:05:44;12.02;;;1.80;;
18997;SDS011;9632;51.018;4.284;2022-11-02T02:08:13;14.35;;;1.65;;
18997;SDS011;9632;51.018;4.284;2022-11-02T02:10:42;14.88;;;1.48;;
18997;SDS011;9632;51.018;4.284;2022-11-02T02:13:08;12.43;;;1.40;;
18997;SDS011;9632;51.018;4.284;2022-11-02T02:18:07;15.25;;;1.90;;
18997;SDS011;9632;51.018;4.284;2022-11-02T02:20:50;11.13;;;1.42;;
18997;SDS011;9632;51.018;4.284;2022-11-02T02:23:43;12.48;;;2.00;;
18997;SDS011;9632;51.018;4.284;2022-11-02T02:28:53;14.30;;;1.45;;
18997;SDS011;9632;51.018;4.284;2022-11-02T02:34:23;15.05;;;1.88;;
18997;SDS011;9632;51.018;4.284;2022-11-02T02:37:05;18.67;;;1.77;;
18997;SDS011;9632;51.018;4.284;2022-11-02T02:39:48;18.75;;;2.13;;
18997;SDS011;9632;51.018;4.284;2022-11-02T02:42:27;15.75;;;1.50;;
18997;SDS011;9632;51.018;4.284;2022-11-02T02:47:28;14.13;;;1.40;;
18997;SDS011;9632;51.018;4.284;2022-11-02T02:50:00;16.20;;;2.10;;
18997;SDS011;9632;51.018;4.284;2022-11-02T02:52:31;18.65;;;1.65;;
18997;SDS011;9632;51.018;4.284;2022-11-02T02:55:01;11.35;;;1.95;;
18997;SDS011;9632;51.018;4.284;2022-11-02T02:57:29;15.38;;;2.55;;
18997;SDS011;9632;51.018;4.284;2022-11-02T02:59:58;13.15;;;2.03;;
18997;SDS011;9632;51.018;4.284;2022-11-02T03:02:26;15.07;;;1.92;;
18997;SDS011;9632;51.018;4.284;2022-11-02T03:04:54;15.25;;;1.95;;
18997;SDS011;9632;51.018;4.284;2022-11-02T03:07:22;13.82;;;2.00;;
18997;SDS011;9632;51.018;4.284;2022-11-02T03:10:28;17.35;;;2.28;;
18997;SDS011;9632;51.018;4.284;2022-11-02T03:13:25;12.07;;;1.42;;
18997;SDS011;9632;51.018;4.284;2022-11-02T03:15:50;12.63;;;1.80;;
18997;SDS011;9632;51.018;4.284;2022-11-02T03:18:48;17.38;;;2.15;;
18997;SDS011;9632;51.018;4.284;2022-11-02T03:24:10;14.95;;;2.03;;
18997;SDS011;9632;51.018;4.284;2022-11-02T03:26:47;18.48;;;2.00;;
18997;SDS011;9632;51.018;4.284;2022-11-02T03:29:39;16.35;;;1.90;;
18997;SDS011;9632;51.018;4.284;2022-11-02T03:32:24;12.27;;;1.50;;
18997;SDS011;9632;51.018;4.284;2022-11-02T03:34:57;14.30;;;1.90;;
18997;SDS011;9632;51.018;4.284;2022-11-02T03:39:52;15.18;;;2.33;;
18997;SDS011;9632;51.018;4.284;2022-11-02T03:42:22;17.92;;;2.05;;
18997;SDS011;9632;51.018;4.284;2022-11-02T03:44:57;17.70;;;1.80;;
18997;SDS011;9632;51.018;4.284;2022-11-02T03:47:29;19.65;;;1.67;;
18997;SDS011;9632;51.018;4.284;2022-11-02T03:49:57;12.43;;;1.80;;
18997;SDS011;9632;51.018;4.284;2022-11-02T03:52:27;15.50;;;1.98;;
18997;SDS011;9632;51.018;4.284;2022-11-02T03:55:05;17.15;;;2.15;;
18997;SDS011;9632;51.018;4.284;2022-11-02T03:57:37;16.23;;;1.90;;
18997;SDS011;9632;51.018;4.284;2022-11-02T04:00:11;16.63;;;1.80;;
18997;SDS011;9632;51.018;4.284;2022-11-02T04:02:40;12.30;;;1.88;;
18997;SDS011;9632;51.018;4.284;2022-11-02T04:05:09;21.55;;;2.00;;
18997;SDS011;9632;51.018;4.284;2022-11-02T04:07:35;16.45;;;1.63;;
18997;SDS011;9632;51.018;4.284;2022-11-02T04:10:23;17.23;;;1.52;;
18997;SDS011;9632;51.018;4.284;2022-11-02T04:12:48;16.98;;;1.83;;
18997;SDS011;9632;51.018;4.284;2022-11-02T04:15:33;14.77;;;2.13;;
18997;SDS011;9632;51.018;4.284;2022-11-02T04:17:58;15.20;;;2.10;;
18997;SDS011;9632;51.018;4.284;2022-11-02T04:20:42;12.30;;;1.60;;
18997;SDS011;9632;51.018;4.284;2022-11-02T04:23:08;13.20;;;1.90;;
18997;SDS011;9632;51.018;4.284;2022-11-02T04:25:52;12.70;;;1.95;;
18997;SDS011;9632;51.018;4.284;2022-11-02T04:28:18;10.25;;;1.88;;
18997;SDS011;9632;51.018;4.284;2022-11-02T04:30:44;15.57;;;1.58;;
18997;SDS011;9632;51.018;4.284;2022-11-02T04:33:10;20.33;;;2.53;;
18997;SDS011;9632;51.018;4.284;2022-11-02T04:35:54;17.02;;;2.47;;
18997;SDS011;9632;51.018;4.284;2022-11-02T04:38:20;15.30;;;1.95;;
18997;SDS011;9632;51.018;4.284;2022-11-02T04:41:04;14.73;;;1.60;;
18997;SDS011;9632;51.018;4.284;2022-11-02T04:44:02;15.15;;;1.85;;
18997;SDS011;9632;51.018;4.284;2022-11-02T04:46:29;13.10;;;1.45;;
18997;SDS011;9632;51.018;4.284;2022-11-02T04:48:56;14.07;;;1.50;;
18997;SDS011;9632;51.018;4.284;2022-11-02T04:51:23;16.25;;;1.80;;
18997;SDS011;9632;51.018;4.284;2022-11-02T04:53:50;22.50;;;2.30;;
18997;SDS011;9632;51.018;4.284;2022-11-02T04:56:17;11.15;;;1.92;;
18997;SDS011;9632;51.018;4.284;2022-11-02T04:58:42;18.15;;;2.33;;
18997;SDS011;9632;51.018;4.284;2022-11-02T05:01:13;15.27;;;2.08;;
18997;SDS011;9632;51.018;4.284;2022-11-02T05:03:40;14.77;;;1.70;;
18997;SDS011;9632;51.018;4.284;2022-11-02T05:06:06;20.05;;;1.90;;
18997;SDS011;9632;51.018;4.284;2022-11-02T05:08:33;13.60;;;1.90;;
18997;SDS011;9632;51.018;4.284;2022-11-02T05:11:00;19.48;;;1.77;;
18997;SDS011;9632;51.018;4.284;2022-11-02T05:13:25;15.55;;;1.90;;
18997;SDS011;9632;51.018;4.284;2022-11-02T05:15:55;13.77;;;1.65;;
18997;SDS011;9632;51.018;4.284;2022-11-02T05:18:21;15.98;;;2.47;;
18997;SDS011;9632;51.018;4.284;2022-11-02T05:20:50;15.05;;;1.88;;
18997;SDS011;9632;51.018;4.284;2022-11-02T05:23:21;17.50;;;2.75;;
18997;SDS011;9632;51.018;4.284;2022-11-02T05:25:57;9.35;;;1.30;;
18997;SDS011;9632;51.018;4.284;2022-11-02T05:28:25;13.07;;;1.63;;
18997;SDS011;9632;51.018;4.284;2022-11-02T05:30:51;18.30;;;1.88;;
18997;SDS011;9632;51.018;4.284;2022-11-02T05:33:17;12.43;;;1.90;;
18997;SDS011;9632;51.018;4.284;2022-11-02T05:35:43;16.65;;;2.35;;
18997;SDS011;9632;51.018;4.284;2022-11-02T05:38:09;15.02;;;2.15;;
18997;SDS011;9632;51.018;4.284;2022-11-02T05:40:35;17.00;;;1.88;;
18997;SDS011;9632;51.018;4.284;2022-11-02T05:43:02;15.18;;;1.75;;
18997;SDS011;9632;51.018;4.284;2022-11-02T05:45:28;13.07;;;1.80;;
18997;SDS011;9632;51.018;4.284;2022-11-02T05:47:54;13.70;;;1.55;;
18997;SDS011;9632;51.018;4.284;2022-11-02T05:50:20;14.60;;;1.70;;
18997;SDS011;9632;51.018;4.284;2022-11-02T05:52:45;14.98;;;1.75;;
18997;SDS011;9632;51.018;4.284;2022-11-02T05:55:11;14.35;;;1.98;;
18997;SDS011;9632;51.018;4.284;2022-11-02T05:57:38;14.93;;;1.85;;
18997;SDS011;9632;51.018;4.284;2022-11-02T06:00:04;15.65;;;1.80;;
18997;SDS011;9632;51.018;4.284;2022-11-02T06:02:32;15.50;;;2.15;;
18997;SDS011;9632;51.018;4.284;2022-11-02T06:04:58;15.35;;;1.58;;
18997;SDS011;9632;51.018;4.284;2022-11-02T06:07:24;18.80;;;2.25;;
18997;SDS011;9632;51.018;4.284;2022-11-02T06:09:50;19.25;;;1.80;;
18997;SDS011;9632;51.018;4.284;2022-11-02T06:12:15;17.45;;;2.45;;
18997;SDS011;9632;51.018;4.284;2022-11-02T06:14:41;12.80;;;1.63;;
18997;SDS011;9632;51.018;4.284;2022-11-02T06:17:07;16.63;;;1.67;;
18997;SDS011;9632;51.018;4.284;2022-11-02T06:19:33;11.57;;;1.30;;
18997;SDS011;9632;51.018;4.284;2022-11-02T06:21:58;18.52;;;2.55;;
18997;SDS011;9632;51.018;4.284;2022-11-02T06:24:24;17.67;;;2.10;;
18997;SDS011;9632;51.018;4.284;2022-11-02T06:26:49;14.95;;;2.35;;
18997;SDS011;9632;51.018;4.284;2022-11-02T06:29:16;16.70;;;2.05;;
18997;SDS011;9632;51.018;4.284;2022-11-02T06:31:41;17.98;;;2.33;;
18997;SDS011;9632;51.018;4.284;2022-11-02T06:34:07;15.82;;;2.30;;
18997;SDS011;9632;51.018;4.284;2022-11-02T06:36:33;12.35;;;1.70;;
18997;SDS011;9632;51.018;4.284;2022-11-02T06:38:58;17.70;;;1.75;;
18997;SDS011;9632;51.018;4.284;2022-11-02T06:41:24;25.33;;;3.00;;
18997;SDS011;9632;51.018;4.284;2022-11-02T06:43:50;14.40;;;2.13;;
18997;SDS011;9632;51.018;4.284;2022-11-02T06:46:15;12.57;;;1.80;;
18997;SDS011;9632;51.018;4.284;2022-11-02T06:48:41;13.40;;;1.95;;
18997;SDS011;9632;51.018;4.284;2022-11-02T06:51:07;18.58;;;2.38;;
18997;SDS011;9632;51.018;4.284;2022-11-02T06:53:32;17.65;;;1.85;;
18997;SDS011;9632;51.018;4.284;2022-11-02T06:55:58;21.63;;;2.28;;
18997;SDS011;9632;51.018;4.284;2022-11-02T06:58:24;19.20;;;1.88;;
18997;SDS011;9632;51.018;4.284;2022-11-02T07:00:57;15.43;;;1.65;;
18997;SDS011;9632;51.018;4.284;2022-11-02T07:03:24;20.92;;;2.40;;
18997;SDS011;9632;51.018;4.284;2022-11-02T07:05:51;21.83;;;2.58;;
18997;SDS011;9632;51.018;4.284;2022-11-02T07:08:17;15.77;;;1.98;;
18997;SDS011;9632;51.018;4.284;2022-11-02T07:10:42;14.18;;;1.83;;
18997;SDS011;9632;51.018;4.284;2022-11-02T07:13:08;23.15;;;2.42;;
18997;SDS011;9632;51.018;4.284;2022-11-02T07:15:34;20.73;;;2.92;;
18997;SDS011;9632;51.018;4.284;2022-11-02T07:17:59;19.75;;;2.63;;
18997;SDS011;9632;51.018;4.284;2022-11-02T07:20:26;20.52;;;2.67;;
18997;SDS011;9632;51.018;4.284;2022-11-02T07:22:55;22.90;;;2.50;;
18997;SDS011;9632;51.018;4.284;2022-11-02T07:25:23;18.58;;;2.95;;
18997;SDS011;9632;51.018;4.284;2022-11-02T07:27:49;19.05;;;2.28;;
18997;SDS011;9632;51.018;4.284;2022-11-02T07:30:15;16.73;;;2.38;;
18997;SDS011;9632;51.018;4.284;2022-11-02T07:32:41;22.80;;;2.83;;
18997;SDS011;9632;51.018;4.284;2022-11-02T07:35:08;20.63;;;2.58;;
18997;SDS011;9632;51.018;4.284;2022-11-02T07:37:35;20.98;;;2.63;;
18997;SDS011;9632;51.018;4.284;2022-11-02T07:40:01;24.48;;;2.72;;
18997;SDS011;9632;51.018;4.284;2022-11-02T07:42:28;19.63;;;2.50;;
18997;SDS011;9632;51.018;4.284;2022-11-02T07:44:53;23.63;;;3.00;;
18997;SDS011;9632;51.018;4.284;2022-11-02T07:47:19;25.25;;;2.70;;
18997;SDS011;9632;51.018;4.284;2022-11-02T07:49:44;20.48;;;2.47;;
18997;SDS011;9632;51.018;4.284;2022-11-02T07:52:10;20.58;;;2.60;;
18997;SDS011;9632;51.018;4.284;2022-11-02T07:54:36;23.58;;;3.00;;
18997;SDS011;9632;51.018;4.284;2022-11-02T07:57:01;29.02;;;2.88;;
18997;SDS011;9632;51.018;4.284;2022-11-02T07:59:27;19.75;;;2.60;;
18997;SDS011;9632;51.018;4.284;2022-11-02T08:01:52;23.00;;;2.63;;
18997;SDS011;9632;51.018;4.284;2022-11-02T08:04:18;19.00;;;2.30;;
18997;SDS011;9632;51.018;4.284;2022-11-02T08:06:44;25.55;;;3.47;;
18997;SDS011;9632;51.018;4.284;2022-11-02T08:09:09;24.48;;;2.97;;
18997;SDS011;9632;51.018;4.284;2022-11-02T08:11:36;16.55;;;2.22;;
18997;SDS011;9632;51.018;4.284;2022-11-02T08:14:02;21.77;;;2.50;;
18997;SDS011;9632;51.018;4.284;2022-11-02T08:16:28;17.15;;;2.20;;
18997;SDS011;9632;51.018;4.284;2022-11-02T08:18:54;19.88;;;2.30;;
18997;SDS011;9632;51.018;4.284;2022-11-02T08:21:19;12.70;;;2.35;;
18997;SDS011;9632;51.018;4.284;2022-11-02T08:23:45;19.33;;;2.20;;
18997;SDS011;9632;51.018;4.284;2022-11-02T08:26:11;20.80;;;2.70;;
18997;SDS011;9632;51.018;4.284;2022-11-02T08:28:36;23.13;;;3.50;;
18997;SDS011;9632;51.018;4.284;2022-11-02T08:31:04;18.23;;;2.75;;
18997;SDS011;9632;51.018;4.284;2022-11-02T08:33:33;21.48;;;2.75;;
18997;SDS011;9632;51.018;4.284;2022-11-02T08:36:02;22.92;;;2.42;;
18997;SDS011;9632;51.018;4.284;2022-11-02T08:38:29;21.70;;;3.10;;
18997;SDS011;9632;51.018;4.284;2022-11-02T08:40:55;30.17;;;4.03;;
18997;SDS011;9632;51.018;4.284;2022-11-02T08:43:21;19.15;;;3.03;;
18997;SDS011;9632;51.018;4.284;2022-11-02T08:45:47;22.60;;;3.10;;
18997;SDS011;9632;51.018;4.284;2022-11-02T08:48:12;20.17;;;3.15;;
18997;SDS011;9632;51.018;4.284;2022-11-02T08:50:38;20.35;;;2.22;;
18997;SDS011;9632;51.018;4.284;2022-11-02T08:53:04;20.48;;;2.58;;
18997;SDS011;9632;51.018;4.284;2022-11-02T08:55:30;24.00;;;2.88;;
18997;SDS011;9632;51.018;4.284;2022-11-02T08:57:57;16.63;;;2.60;;
18997;SDS011;9632;51.018;4.284;2022-11-02T09:00:25;21.98;;;2.80;;
18997;SDS011;9632;51.018;4.284;2022-11-02T09:05:23;27.25;;;2.67;;
18997;SDS011;9632;51.018;4.284;2022-11-02T09:07:53;24.02;;;3.22;;
18997;SDS011;9632;51.018;4.284;2022-11-02T09:10:27;21.95;;;2.95;;
18997;SDS011;9632;51.018;4.284;2022-11-02T09:12:53;19.08;;;3.30;;
18997;SDS011;9632;51.018;4.284;2022-11-02T09:15:20;25.00;;;2.83;;
18997;SDS011;9632;51.018;4.284;2022-11-02T09:17:46;24.10;;;3.08;;
18997;SDS011;9632;51.018;4.284;2022-11-02T09:20:13;23.25;;;2.92;;
18997;SDS011;9632;51.018;4.284;2022-11-02T09:22:39;22.40;;;2.80;;
18997;SDS011;9632;51.018;4.284;2022-11-02T09:25:05;29.40;;;3.60;;
18997;SDS011;9632;51.018;4.284;2022-11-02T09:27:31;23.25;;;3.17;;
18997;SDS011;9632;51.018;4.284;2022-11-02T09:29:56;20.52;;;3.15;;
18997;SDS011;9632;51.018;4.284;2022-11-02T09:32:22;21.67;;;3.08;;
18997;SDS011;9632;51.018;4.284;2022-11-02T09:34:48;25.80;;;3.60;;
18997;SDS011;9632;51.018;4.284;2022-11-02T09:37:14;20.30;;;2.75;;
18997;SDS011;9632;51.018;4.284;2022-11-02T09:39:40;25.25;;;2.58;;
18997;SDS011;9632;51.018;4.284;2022-11-02T09:42:09;22.30;;;2.45;;
18997;SDS011;9632;51.018;4.284;2022-11-02T09:44:48;14.43;;;2.10;;
18997;SDS011;9632;51.018;4.284;2022-11-02T09:47:21;27.42;;;3.13;;
18997;SDS011;9632;51.018;4.284;2022-11-02T09:49:48;19.15;;;2.40;;
18997;SDS011;9632;51.018;4.284;2022-11-02T09:52:19;23.65;;;2.90;;
18997;SDS011;9632;51.018;4.284;2022-11-02T09:55:08;17.65;;;2.67;;
18997;SDS011;9632;51.018;4.284;2022-11-02T09:57:39;28.15;;;3.17;;
18997;SDS011;9632;51.018;4.284;2022-11-02T10:00:13;21.63;;;2.70;;
18997;SDS011;9632;51.018;4.284;2022-11-02T10:13:55;23.83;;;2.58;;
18997;SDS011;9632;51.018;4.284;2022-11-02T10:16:39;19.42;;;2.75;;
18997;SDS011;9632;51.018;4.284;2022-11-02T10:19:39;22.60;;;2.63;;
18997;SDS011;9632;51.018;4.284;2022-11-02T10:22:09;20.90;;;3.33;;
18997;SDS011;9632;51.018;4.284;2022-11-02T10:24:40;22.15;;;2.90;;
18997;SDS011;9632;51.018;4.284;2022-11-02T10:27:16;19.17;;;2.90;;
18997;SDS011;9632;51.018;4.284;2022-11-02T10:32:12;23.15;;;3.22;;
18997;SDS011;9632;51.018;4.284;2022-11-02T10:34:39;19.25;;;2.95;;
18997;SDS011;9632;51.018;4.284;2022-11-02T10:42:48;17.67;;;2.63;;
18997;SDS011;9632;51.018;4.284;2022-11-02T10:51:23;18.08;;;2.70;;
18997;SDS011;9632;51.018;4.284;2022-11-02T10:53:50;19.55;;;2.40;;
18997;SDS011;9632;51.018;4.284;2022-11-02T10:58:58;30.33;;;3.22;;
18997;SDS011;9632;51.018;4.284;2022-11-02T11:01:33;29.13;;;3.22;;
18997;SDS011;9632;51.018;4.284;2022-11-02T11:04:05;22.45;;;2.80;;
18997;SDS011;9632;51.018;4.284;2022-11-02T11:06:54;22.90;;;2.70;;
18997;SDS011;9632;51.018;4.284;2022-11-02T11:09:24;28.88;;;3.20;;
18997;SDS011;9632;51.018;4.284;2022-11-02T11:11:55;21.48;;;2.60;;
18997;SDS011;9632;51.018;4.284;2022-11-02T11:14:31;20.00;;;2.40;;
18997;SDS011;9632;51.018;4.284;2022-11-02T11:17:16;24.10;;;2.78;;
18997;SDS011;9632;51.018;4.284;2022-11-02T11:19:51;17.00;;;3.20;;
18997;SDS011;9632;51.018;4.284;2022-11-02T11:24:47;16.92;;;2.45;;
18997;SDS011;9632;51.018;4.284;2022-11-02T11:29:44;24.70;;;3.20;;
18997;SDS011;9632;51.018;4.284;2022-11-02T11:32:19;23.30;;;2.60;;
18997;SDS011;9632;51.018;4.284;2022-11-02T11:35:01;20.55;;;2.30;;
18997;SDS011;9632;51.018;4.284;2022-11-02T11:37:29;22.63;;;2.75;;
18997;SDS011;9632;51.018;4.284;2022-11-02T11:40:02;20.00;;;2.90;;
18997;SDS011;9632;51.018;4.284;2022-11-02T11:42:36;19.95;;;2.80;;
18997;SDS011;9632;51.018;4.284;2022-11-02T11:45:05;15.55;;;2.42;;
18997;SDS011;9632;51.018;4.284;2022-11-02T11:47:41;22.70;;;2.55;;
18997;SDS011;9632;51.018;4.284;2022-11-02T11:50:14;22.27;;;2.80;;
18997;SDS011;9632;51.018;4.284;2022-11-02T11:52:41;21.23;;;3.05;;
18997;SDS011;9632;51.018;4.284;2022-11-02T11:55:26;22.05;;;3.00;;
18997;SDS011;9632;51.018;4.284;2022-11-02T12:00:43;19.13;;;2.63;;
18997;SDS011;9632;51.018;4.284;2022-11-02T12:03:09;20.88;;;2.38;;
18997;SDS011;9632;51.018;4.284;2022-11-02T12:13:55;18.92;;;2.67;;
18997;SDS011;9632;51.018;4.284;2022-11-02T12:19:59;21.23;;;3.45;;
18997;SDS011;9632;51.018;4.284;2022-11-02T12:27:29;15.02;;;2.30;;
18997;SDS011;9632;51.018;4.284;2022-11-02T12:35:29;16.17;;;2.22;;
18997;SDS011;9632;51.018;4.284;2022-11-02T12:43:40;20.08;;;2.25;;
18997;SDS011;9632;51.018;4.284;2022-11-02T12:51:25;13.65;;;2.20;;
18997;SDS011;9632;51.018;4.284;2022-11-02T12:53:56;16.60;;;2.20;;
18997;SDS011;9632;51.018;4.284;2022-11-02T12:56:29;23.48;;;2.35;;
18997;SDS011;9632;51.018;4.284;2022-11-02T12:59:24;13.48;;;2.20;;
18997;SDS011;9632;51.018;4.284;2022-11-02T13:01:57;16.73;;;2.20;;
18997;SDS011;9632;51.018;4.284;2022-11-02T13:04:32;19.08;;;2.30;;
18997;SDS011;9632;51.018;4.284;2022-11-02T13:07:08;17.38;;;1.85;;
18997;SDS011;9632;51.018;4.284;2022-11-02T13:09:38;15.25;;;1.92;;
18997;SDS011;9632;51.018;4.284;2022-11-02T13:12:12;17.83;;;2.13;;
18997;SDS011;9632;51.018;4.284;2022-11-02T13:14:41;15.68;;;2.47;;
18997;SDS011;9632;51.018;4.284;2022-11-02T13:17:53;15.13;;;2.75;;
18997;SDS011;9632;51.018;4.284;2022-11-02T13:20:25;12.85;;;2.17;;
18997;SDS011;9632;51.018;4.284;2022-11-02T13:23:05;16.80;;;2.33;;
18997;SDS011;9632;51.018;4.284;2022-11-02T13:25:33;18.20;;;2.28;;
18997;SDS011;9632;51.018;4.284;2022-11-02T13:28:10;16.17;;;2.15;;
18997;SDS011;9632;51.018;4.284;2022-11-02T13:30:59;18.92;;;2.33;;
18997;SDS011;9632;51.018;4.284;2022-11-02T13:33:29;14.65;;;1.45;;
18997;SDS011;9632;51.018;4.284;2022-11-02T13:36:07;21.35;;;2.33;;
18997;SDS011;9632;51.018;4.284;2022-11-02T13:38:34;15.82;;;2.30;;
18997;SDS011;9632;51.018;4.284;2022-11-02T13:41:39;17.40;;;2.03;;
18997;SDS011;9632;51.018;4.284;2022-11-02T13:50:03;18.17;;;1.88;;
18997;SDS011;9632;51.018;4.284;2022-11-02T13:52:39;17.17;;;2.33;;
18997;SDS011;9632;51.018;4.284;2022-11-02T13:55:54;18.60;;;2.35;;
18997;SDS011;9632;51.018;4.284;2022-11-02T13:58:05;14.27;;;1.67;;
18997;SDS011;9632;51.018;4.284;2022-11-02T14:00:38;16.23;;;1.63;;
18997;SDS011;9632;51.018;4.284;2022-11-02T14:05:42;8.05;;;1.08;;
18997;SDS011;9632;51.018;4.284;2022-11-02T14:08:16;13.02;;;1.52;;
18997;SDS011;9632;51.018;4.284;2022-11-02T14:11:00;12.27;;;1.40;;
18997;SDS011;9632;51.018;4.284;2022-11-02T14:27:00;14.70;;;1.85;;
18997;SDS011;9632;51.018;4.284;2022-11-02T14:32:57;13.43;;;1.60;;
18997;SDS011;9632;51.018;4.284;2022-11-02T14:37:59;15.23;;;1.60;;
18997;SDS011;9632;51.018;4.284;2022-11-02T14:46:37;13.25;;;1.45;;
18997;SDS011;9632;51.018;4.284;2022-11-02T14:49:25;12.30;;;1.48;;
18997;SDS011;9632;51.018;4.284;2022-11-02T14:51:55;11.05;;;2.05;;
18997;SDS011;9632;51.018;4.284;2022-11-02T14:54:24;18.33;;;1.85;;
18997;SDS011;9632;51.018;4.284;2022-11-02T15:02:01;10.35;;;1.73;;
18997;SDS011;9632;51.018;4.284;2022-11-02T15:04:33;14.15;;;1.70;;
18997;SDS011;9632;51.018;4.284;2022-11-02T15:07:00;13.32;;;1.88;;
18997;SDS011;9632;51.018;4.284;2022-11-02T15:09:49;11.90;;;1.70;;
18997;SDS011;9632;51.018;4.284;2022-11-02T15:12:38;12.85;;;1.60;;
18997;SDS011;9632;51.018;4.284;2022-11-02T15:23:57;15.32;;;1.75;;
18997;SDS011;9632;51.018;4.284;2022-11-02T15:26:55;10.68;;;1.60;;
18997;SDS011;9632;51.018;4.284;2022-11-02T15:29:30;16.35;;;1.58;;
18997;SDS011;9632;51.018;4.284;2022-11-02T15:31:57;14.93;;;1.90;;
18997;SDS011;9632;51.018;4.284;2022-11-02T15:34:26;10.40;;;1.40;;
18997;SDS011;9632;51.018;4.284;2022-11-02T15:37:10;9.60;;;1.27;;
18997;SDS011;9632;51.018;4.284;2022-11-02T15:39:50;15.38;;;1.77;;
18997;SDS011;9632;51.018;4.284;2022-11-02T15:42:30;13.23;;;1.55;;
18997;SDS011;9632;51.018;4.284;2022-11-02T15:50:55;19.17;;;1.67;;
18997;SDS011;9632;51.018;4.284;2022-11-02T15:56:43;7.88;;;1.60;;
18997;SDS011;9632;51.018;4.284;2022-11-02T16:02:21;13.38;;;1.70;;
18997;SDS011;9632;51.018;4.284;2022-11-02T16:04:51;17.10;;;1.88;;
18997;SDS011;9632;51.018;4.284;2022-11-02T16:07:26;16.00;;;2.03;;
18997;SDS011;9632;51.018;4.284;2022-11-02T16:09:54;12.73;;;1.95;;
18997;SDS011;9632;51.018;4.284;2022-11-02T16:12:35;13.32;;;1.67;;
18997;SDS011;9632;51.018;4.284;2022-11-02T16:15:08;11.77;;;1.58;;
18997;SDS011;9632;51.018;4.284;2022-11-02T16:17:35;16.40;;;2.20;;
18997;SDS011;9632;51.018;4.284;2022-11-02T16:20:18;11.60;;;1.77;;
18997;SDS011;9632;51.018;4.284;2022-11-02T16:22:47;14.25;;;1.95;;
18997;SDS011;9632;51.018;4.284;2022-11-02T16:25:56;13.30;;;1.70;;
18997;SDS011;9632;51.018;4.284;2022-11-02T16:28:21;12.35;;;1.55;;
18997;SDS011;9632;51.018;4.284;2022-11-02T16:33:31;19.60;;;3.22;;
18997;SDS011;9632;51.018;4.284;2022-11-02T16:36:02;29.73;;;7.50;;
18997;SDS011;9632;51.018;4.284;2022-11-02T16:38:29;22.67;;;5.45;;
18997;SDS011;9632;51.018;4.284;2022-11-02T16:40:55;20.10;;;4.90;;
18997;SDS011;9632;51.018;4.284;2022-11-02T16:43:21;21.38;;;3.75;;
18997;SDS011;9632;51.018;4.284;2022-11-02T16:45:48;16.20;;;2.30;;
18997;SDS011;9632;51.018;4.284;2022-11-02T16:50:53;12.25;;;1.70;;
18997;SDS011;9632;51.018;4.284;2022-11-02T16:53:29;15.05;;;2.00;;
18997;SDS011;9632;51.018;4.284;2022-11-02T16:58:59;10.48;;;2.00;;
18997;SDS011;9632;51.018;4.284;2022-11-02T17:01:33;12.13;;;2.42;;
18997;SDS011;9632;51.018;4.284;2022-11-02T17:06:46;12.30;;;2.13;;
18997;SDS011;9632;51.018;4.284;2022-11-02T17:09:19;15.10;;;2.83;;
18997;SDS011;9632;51.018;4.284;2022-11-02T17:11:48;15.50;;;3.53;;
18997;SDS011;9632;51.018;4.284;2022-11-02T17:14:16;8.40;;;2.10;;
18997;SDS011;9632;51.018;4.284;2022-11-02T17:24:39;13.23;;;3.30;;
18997;SDS011;9632;51.018;4.284;2022-11-02T17:27:24;15.45;;;2.75;;
18997;SDS011;9632;51.018;4.284;2022-11-02T17:29:52;13.50;;;3.10;;
18997;SDS011;9632;51.018;4.284;2022-11-02T17:32:18;13.60;;;2.88;;
18997;SDS011;9632;51.018;4.284;2022-11-02T17:34:52;18.77;;;2.67;;
18997;SDS011;9632;51.018;4.284;2022-11-02T17:37:20;15.30;;;2.47;;
18997;SDS011;9632;51.018;4.284;2022-11-02T17:39:47;12.45;;;2.63;;
18997;SDS011;9632;51.018;4.284;2022-11-02T17:42:13;15.65;;;2.47;;
18997;SDS011;9632;51.018;4.284;2022-11-02T17:45:14;19.35;;;3.53;;
18997;SDS011;9632;51.018;4.284;2022-11-02T17:47:47;12.73;;;3.10;;
18997;SDS011;9632;51.018;4.284;2022-11-02T17:50:12;13.50;;;2.53;;
18997;SDS011;9632;51.018;4.284;2022-11-02T17:52:39;12.90;;;2.60;;
18997;SDS011;9632;51.018;4.284;2022-11-02T17:55:05;11.55;;;2.03;;